createdAt,value
2019-04-25T00:02:36.778Z,14.80
2019-04-25T00:05:11.223Z,14.70
2019-04-25T00:07:43.034Z,14.60
2019-04-25T00:10:14.650Z,14.60
2019-04-25T00:12:44.630Z,14.60
2019-04-25T00:15:14.434Z,14.50
2019-04-25T00:17:44.478Z,14.50
2019-04-25T00:20:15.069Z,14.50
2019-04-25T00:22:46.980Z,14.40
2019-04-25T00:25:36.603Z,14.40
2019-04-25T00:28:08.153Z,14.40
2019-04-25T00:30:37.984Z,14.30
2019-04-25T00:33:07.867Z,14.30
2019-04-25T00:35:37.689Z,14.20
2019-04-25T00:38:08.377Z,14.20
2019-04-25T00:40:38.246Z,14.20
2019-04-25T00:43:08.021Z,14.20
2019-04-25T00:45:37.888Z,14.20
2019-04-25T00:48:07.765Z,14.20
2019-04-25T00:50:37.874Z,14.20
2019-04-25T00:53:08.388Z,14.20
2019-04-25T00:55:38.172Z,14.20
2019-04-25T00:58:15.979Z,14.20
2019-04-25T01:00:47.539Z,14.10
2019-04-25T01:03:19.074Z,14.10
2019-04-25T01:05:49.618Z,14.00
2019-04-25T01:08:19.738Z,14.00
2019-04-25T01:10:50.400Z,13.90
2019-04-25T01:13:22.323Z,13.90
2019-04-25T01:15:53.743Z,13.80
2019-04-25T01:18:25.110Z,13.70
2019-04-25T01:20:55.490Z,13.70
2019-04-25T01:23:25.293Z,13.70
2019-04-25T01:25:55.855Z,13.60
2019-04-25T01:28:26.854Z,13.60
2019-04-25T01:30:56.627Z,13.50
2019-04-25T01:33:27.916Z,13.50
2019-04-25T01:36:03.281Z,13.50
2019-04-25T01:38:47.662Z,13.40
2019-04-25T01:41:31.171Z,13.40
2019-04-25T01:44:05.401Z,13.30
2019-04-25T01:46:37.017Z,13.30
2019-04-25T01:49:06.843Z,13.20
2019-04-25T01:51:36.619Z,13.20
2019-04-25T01:54:06.425Z,13.20
2019-04-25T01:56:36.454Z,13.10
2019-04-25T01:59:06.234Z,13.10
2019-04-25T02:01:37.481Z,13.00
2019-04-25T02:04:07.293Z,12.90
2019-04-25T02:06:37.275Z,12.90
2019-04-25T02:09:09.413Z,12.80
2019-04-25T02:11:40.937Z,12.70
2019-04-25T02:14:10.761Z,12.70
2019-04-25T02:16:40.806Z,12.70
2019-04-25T02:19:10.715Z,12.60
2019-04-25T02:21:40.590Z,12.60
2019-04-25T02:24:11.394Z,12.60
2019-04-25T02:26:41.169Z,12.60
2019-04-25T02:29:11.146Z,12.50
2019-04-25T02:31:40.923Z,12.50
2019-04-25T02:34:11.447Z,12.40
2019-04-25T02:36:41.206Z,12.40
2019-04-25T02:39:17.732Z,12.30
2019-04-25T02:41:47.610Z,12.30
2019-04-25T02:44:17.474Z,12.20
2019-04-25T02:47:00.526Z,12.10
2019-04-25T02:49:38.863Z,12.10
2019-04-25T02:52:09.730Z,12.00
2019-04-25T02:54:38.458Z,12.00
2019-04-25T02:57:08.402Z,11.90
2019-04-25T02:59:38.171Z,11.90
2019-04-25T03:02:09.211Z,11.90
2019-04-25T03:04:40.208Z,11.80
2019-04-25T03:07:11.241Z,11.80
2019-04-25T03:09:41.692Z,11.80
2019-04-25T03:12:25.440Z,11.70
2019-04-25T03:14:44.641Z,11.70
2019-04-25T03:17:14.633Z,11.60
2019-04-25T03:20:06.513Z,11.60
2019-04-25T03:22:34.915Z,11.60
2019-04-25T03:25:10.780Z,11.50
2019-04-25T03:27:37.929Z,11.50
2019-04-25T03:30:13.018Z,11.50
2019-04-25T03:32:39.955Z,11.50
2019-04-25T03:35:10.915Z,11.50
2019-04-25T03:37:43.619Z,11.50
2019-04-25T03:40:14.050Z,11.50
2019-04-25T03:42:43.994Z,11.50
2019-04-25T03:45:14.860Z,11.50
2019-04-25T03:47:44.778Z,11.50
2019-04-25T03:50:14.621Z,11.50
2019-04-25T03:52:44.390Z,11.40
2019-04-25T03:55:14.627Z,11.40
2019-04-25T03:57:44.472Z,11.40
2019-04-25T04:00:15.174Z,11.40
2019-04-25T04:02:45.117Z,11.40
2019-04-25T04:05:15.094Z,11.40
2019-04-25T04:07:45.981Z,11.40
2019-04-25T04:10:15.777Z,11.40
2019-04-25T04:12:45.778Z,11.30
2019-04-25T04:15:16.333Z,11.30
2019-04-25T04:17:47.785Z,11.30
2019-04-25T04:20:19.242Z,11.20
2019-04-25T04:22:50.645Z,11.20
2019-04-25T04:25:23.626Z,11.20
2019-04-25T04:27:53.850Z,11.20
2019-04-25T04:30:24.377Z,11.10
2019-04-25T04:32:54.206Z,11.20
2019-04-25T04:35:24.025Z,11.20
2019-04-25T04:37:54.245Z,11.20
2019-04-25T04:40:24.375Z,11.30
2019-04-25T04:42:55.233Z,11.30
2019-04-25T04:45:25.190Z,11.40
2019-04-25T04:47:54.986Z,11.50
2019-04-25T04:50:25.603Z,11.60
2019-04-25T04:52:56.261Z,11.90
2019-04-25T04:55:26.757Z,12.10
2019-04-25T04:57:56.658Z,12.40
2019-04-25T05:00:28.073Z,12.70
2019-04-25T05:03:10.335Z,13.10
2019-04-25T05:05:43.976Z,13.60
2019-04-25T05:08:17.249Z,14.10
2019-04-25T05:10:47.066Z,14.60
2019-04-25T05:13:17.985Z,15.00
2019-04-25T05:15:48.555Z,15.40
2019-04-25T05:18:33.011Z,15.60
2019-04-25T05:20:51.189Z,15.90
2019-04-25T05:23:21.052Z,16.10
2019-04-25T05:25:50.929Z,16.30
2019-04-25T05:28:21.011Z,16.50
2019-04-25T05:30:58.542Z,16.70
2019-04-25T05:33:28.474Z,16.90
2019-04-25T05:35:58.270Z,17.20
2019-04-25T05:38:28.075Z,17.40
2019-04-25T05:41:00.285Z,17.70
2019-04-25T05:43:30.143Z,18.00
2019-04-25T05:46:00.113Z,18.40
2019-04-25T05:48:29.964Z,18.70
2019-04-25T05:51:00.002Z,19.00
2019-04-25T05:53:30.106Z,19.40
2019-04-25T05:55:59.929Z,19.80
2019-04-25T05:58:29.742Z,20.30
2019-04-25T06:01:00.513Z,20.90
2019-04-25T06:03:30.338Z,21.50
2019-04-25T06:06:00.146Z,22.10
2019-04-25T06:08:31.606Z,22.70
2019-04-25T06:11:15.113Z,23.20
2019-04-25T06:13:46.577Z,23.70
2019-04-25T06:16:18.556Z,24.20
2019-04-25T06:18:50.773Z,24.60
2019-04-25T06:21:21.397Z,24.90
2019-04-25T06:24:11.446Z,25.20
2019-04-25T06:26:50.237Z,25.60
2019-04-25T06:29:20.525Z,25.90
2019-04-25T06:31:50.654Z,26.20
2019-04-25T06:34:21.377Z,26.40
2019-04-25T06:36:51.280Z,26.70
2019-04-25T06:39:21.985Z,27.00
2019-04-25T06:41:51.868Z,27.40
2019-04-25T06:44:29.408Z,27.60
2019-04-25T06:47:00.883Z,27.90
2019-04-25T06:49:37.976Z,28.30
2019-04-25T06:52:08.134Z,28.60
2019-04-25T06:54:38.007Z,29.00
2019-04-25T06:57:07.802Z,29.30
2019-04-25T06:59:41.255Z,29.60
2019-04-25T07:02:10.059Z,30.00
2019-04-25T07:04:40.558Z,30.20
2019-04-25T07:07:14.360Z,30.50
2019-04-25T07:09:43.359Z,30.80
2019-04-25T07:12:13.579Z,31.00
2019-04-25T07:14:44.007Z,31.20
2019-04-25T07:17:14.396Z,31.40
2019-04-25T07:19:45.304Z,31.60
2019-04-25T07:22:15.509Z,31.70
2019-04-25T07:24:46.485Z,31.90
2019-04-25T07:27:21.432Z,32.10
2019-04-25T07:29:53.887Z,32.20
2019-04-25T07:32:30.167Z,32.30
2019-04-25T07:35:00.005Z,32.40
2019-04-25T07:37:29.905Z,32.50
2019-04-25T07:40:00.560Z,32.70
2019-04-25T07:42:31.954Z,32.80
2019-04-25T07:45:01.882Z,32.90
2019-04-25T07:47:31.845Z,33.00
2019-04-25T07:50:01.825Z,33.00
2019-04-25T07:52:33.281Z,33.20
2019-04-25T07:55:03.792Z,33.20
2019-04-25T07:57:34.922Z,33.20
2019-04-25T08:00:14.793Z,33.30
2019-04-25T08:02:45.066Z,33.40
2019-04-25T08:05:18.073Z,33.40
2019-04-25T08:07:47.958Z,33.50
2019-04-25T08:10:19.266Z,33.50
2019-04-25T08:12:49.086Z,33.60
2019-04-25T08:15:36.270Z,33.60
2019-04-25T08:18:08.098Z,33.70
2019-04-25T08:20:38.027Z,33.70
2019-04-25T08:23:08.026Z,33.60
2019-04-25T08:25:39.625Z,33.50
2019-04-25T08:28:09.569Z,33.30
2019-04-25T08:30:39.445Z,33.20
2019-04-25T08:33:09.273Z,33.20
2019-04-25T08:35:39.227Z,33.10
2019-04-25T08:38:09.082Z,33.20
2019-04-25T08:40:39.328Z,33.30
2019-04-25T08:43:10.062Z,33.30
2019-04-25T08:45:39.882Z,33.40
2019-04-25T08:48:09.881Z,33.20
2019-04-25T08:50:58.959Z,33.00
2019-04-25T08:53:32.781Z,32.80
2019-04-25T08:56:06.789Z,32.60
2019-04-25T08:59:03.339Z,32.40
2019-04-25T09:01:29.071Z,32.10
2019-04-25T09:04:19.282Z,31.90
2019-04-25T09:06:49.105Z,31.80
2019-04-25T09:09:19.105Z,31.70
2019-04-25T09:11:48.946Z,31.50
2019-04-25T09:14:18.792Z,31.40
2019-04-25T09:16:48.577Z,31.40
2019-04-25T09:19:18.540Z,31.40
2019-04-25T09:21:49.656Z,31.40
2019-04-25T09:24:19.494Z,31.50
2019-04-25T09:26:49.465Z,31.40
2019-04-25T09:29:20.035Z,31.30
2019-04-25T09:31:50.977Z,31.30
2019-04-25T09:34:20.807Z,31.30
2019-04-25T09:36:50.757Z,31.20
2019-04-25T09:39:23.661Z,31.10
2019-04-25T09:41:53.752Z,31.10
2019-04-25T09:44:30.893Z,31.10
2019-04-25T09:47:00.862Z,30.90
2019-04-25T09:49:33.880Z,30.90
2019-04-25T09:52:06.529Z,30.80
2019-04-25T09:54:42.378Z,30.60
2019-04-25T09:57:26.961Z,30.50
2019-04-25T09:59:56.861Z,30.30
2019-04-25T10:02:26.818Z,30.10
2019-04-25T10:04:57.006Z,29.80
2019-04-25T10:07:26.889Z,29.40
2019-04-25T10:09:57.175Z,29.00
2019-04-25T10:12:27.293Z,28.70
2019-04-25T10:15:18.435Z,28.30
2019-04-25T10:17:48.325Z,28.00
2019-04-25T10:20:18.971Z,27.70
2019-04-25T10:22:48.776Z,27.50
2019-04-25T10:25:19.069Z,27.30
2019-04-25T10:27:49.346Z,27.10
2019-04-25T10:30:23.331Z,26.90
2019-04-25T10:32:51.171Z,26.90
2019-04-25T10:35:20.984Z,26.80
2019-04-25T10:37:50.942Z,26.70
2019-04-25T10:40:23.454Z,26.60
2019-04-25T10:42:53.383Z,26.60
2019-04-25T10:45:25.809Z,26.60
2019-04-25T10:47:56.417Z,26.60
2019-04-25T10:50:26.357Z,26.50
2019-04-25T10:52:56.240Z,26.50
2019-04-25T10:55:26.047Z,26.50
2019-04-25T10:57:56.391Z,26.50
2019-04-25T11:00:28.717Z,26.60
2019-04-25T11:03:00.194Z,26.60
2019-04-25T11:05:30.163Z,26.70
2019-04-25T11:07:59.989Z,26.80
2019-04-25T11:10:29.897Z,26.80
2019-04-25T11:12:59.938Z,26.90
2019-04-25T11:15:29.911Z,26.90
2019-04-25T11:18:00.569Z,26.90
2019-04-25T11:20:33.693Z,26.90
2019-04-25T11:23:03.935Z,26.90
2019-04-25T11:25:34.201Z,26.90
2019-04-25T11:28:07.228Z,26.90
2019-04-25T11:30:37.206Z,26.80
2019-04-25T11:33:08.985Z,26.80
2019-04-25T11:35:38.814Z,26.80
2019-04-25T11:38:10.310Z,26.80
2019-04-25T11:40:54.937Z,26.90
2019-04-25T11:43:24.082Z,26.90
2019-04-25T11:45:55.772Z,27.00
2019-04-25T11:48:25.634Z,27.10
2019-04-25T11:50:56.576Z,27.20
2019-04-25T11:53:26.573Z,27.30
2019-04-25T11:55:57.226Z,27.30
2019-04-25T11:58:27.216Z,27.30
2019-04-25T12:00:57.988Z,27.30
2019-04-25T12:03:29.050Z,27.40
2019-04-25T12:05:58.885Z,27.40
2019-04-25T12:08:28.713Z,27.50
2019-04-25T12:10:58.572Z,27.60
2019-04-25T12:13:28.418Z,27.60
2019-04-25T12:15:58.551Z,27.60
2019-04-25T12:18:28.413Z,27.60
2019-04-25T12:20:58.391Z,27.60
2019-04-25T12:23:28.286Z,27.60
2019-04-25T12:25:58.494Z,27.60
2019-04-25T12:28:29.090Z,27.70
2019-04-25T12:30:59.025Z,27.70
2019-04-25T12:33:29.010Z,27.80
2019-04-25T12:35:58.837Z,27.90
2019-04-25T12:38:28.661Z,27.90
2019-04-25T12:40:58.553Z,27.90
2019-04-25T12:43:30.093Z,27.80
2019-04-25T12:46:04.190Z,27.80
2019-04-25T12:48:34.145Z,27.80
2019-04-25T12:51:04.379Z,27.80
2019-04-25T12:53:35.126Z,27.80
2019-04-25T12:56:05.093Z,27.80
2019-04-25T12:58:34.926Z,27.90
2019-04-25T13:01:05.770Z,27.90
2019-04-25T13:03:35.717Z,27.90
2019-04-25T13:06:05.609Z,27.90
2019-04-25T13:08:35.507Z,27.90
2019-04-25T13:11:08.642Z,28.00
2019-04-25T13:13:37.023Z,28.10
2019-04-25T13:16:07.728Z,28.10
2019-04-25T13:18:37.521Z,28.10
2019-04-25T13:21:07.761Z,28.10
2019-04-25T13:23:38.474Z,28.10
2019-04-25T13:26:08.389Z,28.20
2019-04-25T13:28:59.008Z,28.20
2019-04-25T13:31:36.263Z,28.20
2019-04-25T13:34:07.875Z,28.30
2019-04-25T13:36:37.844Z,28.30
2019-04-25T13:39:12.830Z,28.40
2019-04-25T13:41:44.823Z,28.40
2019-04-25T13:44:14.694Z,28.50
2019-04-25T13:46:44.568Z,28.50
2019-04-25T13:49:14.646Z,28.50
2019-04-25T13:51:44.465Z,28.50
2019-04-25T13:54:14.835Z,28.50
2019-04-25T13:56:45.281Z,28.40
2019-04-25T13:59:15.140Z,28.40
2019-04-25T14:01:45.417Z,28.40
2019-04-25T14:04:15.577Z,28.40
2019-04-25T14:06:45.456Z,28.40
2019-04-25T14:09:16.821Z,28.40
2019-04-25T14:11:46.859Z,28.40
2019-04-25T14:14:17.546Z,28.40
2019-04-25T14:16:49.178Z,28.40
2019-04-25T14:19:25.790Z,28.40
2019-04-25T14:21:57.594Z,28.40
2019-04-25T14:24:30.507Z,28.40
2019-04-25T14:26:59.040Z,28.50
2019-04-25T14:29:28.918Z,28.60
2019-04-25T14:31:58.986Z,28.60
2019-04-25T14:34:29.857Z,28.70
2019-04-25T14:36:59.670Z,28.70
2019-04-25T14:39:30.362Z,28.70
2019-04-25T14:42:00.231Z,28.70
2019-04-25T14:44:30.050Z,28.60
2019-04-25T14:47:00.140Z,28.60
2019-04-25T14:49:30.502Z,28.50
2019-04-25T14:52:00.552Z,28.40
2019-04-25T14:54:47.171Z,28.40
2019-04-25T14:57:21.863Z,28.40
2019-04-25T14:59:52.850Z,28.40
2019-04-25T15:02:23.784Z,28.30
2019-04-25T15:04:53.711Z,28.30
2019-04-25T15:07:24.425Z,28.30
2019-04-25T15:09:54.365Z,28.20
2019-04-25T15:12:24.759Z,28.20
2019-04-25T15:14:54.661Z,28.20
2019-04-25T15:17:24.578Z,28.10
2019-04-25T15:19:55.129Z,28.10
2019-04-25T15:22:25.674Z,28.10
2019-04-25T15:24:55.572Z,28.10
2019-04-25T15:27:26.430Z,28.00
2019-04-25T15:29:56.334Z,28.00
2019-04-25T15:32:27.785Z,28.00
2019-04-25T15:34:59.241Z,28.00
2019-04-25T15:37:34.871Z,28.00
2019-04-25T15:40:08.550Z,28.00
2019-04-25T15:42:56.307Z,28.00
2019-04-25T15:45:43.070Z,28.00
2019-04-25T15:48:12.933Z,28.00
2019-04-25T15:50:43.201Z,28.00
2019-04-25T15:53:13.802Z,28.00
2019-04-25T15:55:43.728Z,27.90
2019-04-25T15:58:13.582Z,27.90
2019-04-25T16:00:43.456Z,27.80
2019-04-25T16:03:14.523Z,27.80
2019-04-25T16:05:44.425Z,27.80
2019-04-25T16:08:15.244Z,27.70
2019-04-25T16:10:45.414Z,27.70
2019-04-25T16:13:15.256Z,27.70
2019-04-25T16:15:45.146Z,27.60
2019-04-25T16:18:15.105Z,27.60
2019-04-25T16:20:45.890Z,27.50
2019-04-25T16:23:16.249Z,27.40
2019-04-25T16:25:46.078Z,27.30
2019-04-25T16:28:15.977Z,27.20
2019-04-25T16:30:46.913Z,27.10
2019-04-25T16:33:16.721Z,27.10
2019-04-25T16:35:46.497Z,27.00
2019-04-25T16:38:16.826Z,26.90
2019-04-25T16:40:46.595Z,26.90
2019-04-25T16:43:18.138Z,26.80
2019-04-25T16:45:47.911Z,26.80
2019-04-25T16:48:17.721Z,26.80
2019-04-25T16:50:47.621Z,26.80
2019-04-25T16:53:17.528Z,26.80
2019-04-25T16:55:47.288Z,26.80
2019-04-25T16:58:17.119Z,26.80
2019-04-25T17:00:49.302Z,26.70
2019-04-25T17:03:20.906Z,26.70
2019-04-25T17:05:50.672Z,26.60
2019-04-25T17:08:20.609Z,26.60
2019-04-25T17:10:50.445Z,26.60
2019-04-25T17:13:20.390Z,26.50
2019-04-25T17:15:57.603Z,26.50
2019-04-25T17:18:29.734Z,26.40
2019-04-25T17:21:04.722Z,26.30
2019-04-25T17:23:34.568Z,26.30
2019-04-25T17:26:05.982Z,26.20
2019-04-25T17:28:37.725Z,26.10
2019-04-25T17:31:19.314Z,26.10
2019-04-25T17:34:06.901Z,26.10
2019-04-25T17:36:39.413Z,26.00
2019-04-25T17:39:10.849Z,25.90
2019-04-25T17:41:41.206Z,25.90
2019-04-25T17:44:10.968Z,25.80
2019-04-25T17:46:40.751Z,25.80
2019-04-25T17:49:12.893Z,25.70
2019-04-25T17:51:42.057Z,25.60
2019-04-25T17:54:11.966Z,25.60
2019-04-25T17:56:41.782Z,25.50
2019-04-25T17:59:11.583Z,25.40
2019-04-25T18:01:42.202Z,25.30
2019-04-25T18:04:13.170Z,25.20
2019-04-25T18:06:44.303Z,25.20
2019-04-25T18:09:14.223Z,25.10
2019-04-25T18:11:45.302Z,25.00
2019-04-25T18:14:15.445Z,24.90
2019-04-25T18:16:47.045Z,24.80
2019-04-25T18:19:21.275Z,24.70
2019-04-25T18:21:51.126Z,24.60
2019-04-25T18:24:39.094Z,24.50
2019-04-25T18:27:10.801Z,24.40
2019-04-25T18:29:41.555Z,24.40
2019-04-25T18:32:11.449Z,24.30
2019-04-25T18:34:46.499Z,24.20
2019-04-25T18:37:24.509Z,24.20
2019-04-25T18:39:56.066Z,24.10
2019-04-25T18:42:44.538Z,24.10
2019-04-25T18:45:18.929Z,24.00
2019-04-25T18:47:48.890Z,23.90
2019-04-25T18:50:20.306Z,23.90
2019-04-25T18:52:54.673Z,23.90
2019-04-25T18:55:31.969Z,23.80
2019-04-25T18:58:19.705Z,23.70
2019-04-25T19:01:03.026Z,23.70
2019-04-25T19:03:35.426Z,23.60
2019-04-25T19:06:09.978Z,23.60
2019-04-25T19:08:40.890Z,23.60
2019-04-25T19:11:10.717Z,23.50
2019-04-25T19:13:41.064Z,23.50
2019-04-25T19:16:10.962Z,23.40
2019-04-25T19:18:41.452Z,23.40
2019-04-25T19:21:12.224Z,23.40
2019-04-25T19:23:42.050Z,23.30
2019-04-25T19:26:12.001Z,23.30
2019-04-25T19:28:42.710Z,23.30
2019-04-25T19:31:12.613Z,23.20
2019-04-25T19:33:43.281Z,23.20
2019-04-25T19:36:13.424Z,23.20
2019-04-25T19:38:43.938Z,23.10
2019-04-25T19:41:28.354Z,23.10
2019-04-25T19:44:02.637Z,23.10
2019-04-25T19:46:38.300Z,23.10
2019-04-25T19:49:08.457Z,23.00
2019-04-25T19:51:38.230Z,23.00
2019-04-25T19:54:08.001Z,22.90
2019-04-25T19:56:37.892Z,22.80
2019-04-25T19:59:07.789Z,22.70
2019-04-25T20:01:37.698Z,22.50
2019-04-25T20:04:09.418Z,22.40
2019-04-25T20:06:40.857Z,22.20
2019-04-25T20:09:18.052Z,22.10
2019-04-25T20:11:49.515Z,22.00
2019-04-25T20:14:19.405Z,21.90
2019-04-25T20:16:49.666Z,21.70
2019-04-25T20:19:19.818Z,21.60
2019-04-25T20:21:50.029Z,21.50
2019-04-25T20:24:19.966Z,21.40
2019-04-25T20:26:50.458Z,21.30
2019-04-25T20:29:20.284Z,21.20
2019-04-25T20:31:50.671Z,21.10
2019-04-25T20:34:20.505Z,21.00
2019-04-25T20:36:51.545Z,21.00
2019-04-25T20:39:21.425Z,20.90
2019-04-25T20:41:51.927Z,20.90
2019-04-25T20:44:21.754Z,20.80
2019-04-25T20:46:52.602Z,20.80
2019-04-25T20:49:22.401Z,20.80
2019-04-25T20:51:52.628Z,20.70
2019-04-25T20:54:22.410Z,20.70
2019-04-25T20:56:53.005Z,20.60
2019-04-25T20:59:22.847Z,20.70
2019-04-25T21:01:53.601Z,20.60
2019-04-25T21:04:41.481Z,20.50
2019-04-25T21:07:11.416Z,20.50
2019-04-25T21:09:41.226Z,20.50
2019-04-25T21:12:11.056Z,20.40
2019-04-25T21:14:43.027Z,20.40
2019-04-25T21:17:30.365Z,20.30
2019-04-25T21:20:01.138Z,20.30
2019-04-25T21:22:30.910Z,20.30
2019-04-25T21:25:00.720Z,20.30
2019-04-25T21:27:30.601Z,20.30
2019-04-25T21:30:00.425Z,20.30
2019-04-25T21:32:32.091Z,20.30
2019-04-25T21:35:03.070Z,20.20
2019-04-25T21:37:33.049Z,20.20
2019-04-25T21:40:11.900Z,20.20
2019-04-25T21:42:43.653Z,20.20
2019-04-25T21:45:13.957Z,20.20
2019-04-25T21:47:43.788Z,20.10
2019-04-25T21:50:14.199Z,20.10
2019-04-25T21:52:44.421Z,20.00
2019-04-25T21:55:14.481Z,20.00
2019-04-25T21:57:44.481Z,19.90
2019-04-25T22:00:17.285Z,19.80
2019-04-25T22:02:48.872Z,19.80
2019-04-25T22:05:18.904Z,19.70
2019-04-25T22:07:49.073Z,19.70
2019-04-25T22:10:19.066Z,19.60
2019-04-25T22:12:48.881Z,19.50
2019-04-25T22:15:18.931Z,19.50
2019-04-25T22:17:48.936Z,19.40
2019-04-25T22:20:18.799Z,19.40
2019-04-25T22:22:48.690Z,19.40
2019-04-25T22:25:18.561Z,19.30
2019-04-25T22:27:49.756Z,19.30
2019-04-25T22:30:20.455Z,19.30
2019-04-25T22:32:58.631Z,19.20
2019-04-25T22:35:40.109Z,19.10
2019-04-25T22:38:10.206Z,19.10
2019-04-25T22:40:40.037Z,19.00
2019-04-25T22:43:12.063Z,19.00
2019-04-25T22:45:42.192Z,18.90
2019-04-25T22:48:12.023Z,18.90
2019-04-25T22:50:42.064Z,18.80
2019-04-25T22:53:21.506Z,18.70
2019-04-25T22:55:43.405Z,18.70
2019-04-25T22:58:13.230Z,18.60
2019-04-25T23:00:43.126Z,18.60
2019-04-25T23:03:18.822Z,18.50
2019-04-25T23:05:53.758Z,18.50
2019-04-25T23:08:23.933Z,18.40
2019-04-25T23:10:53.752Z,18.40
2019-04-25T23:13:24.620Z,18.30
2019-04-25T23:15:54.458Z,18.20
2019-04-25T23:18:24.662Z,18.20
2019-04-25T23:20:54.509Z,18.10
2019-04-25T23:23:24.637Z,18.00
2019-04-25T23:25:56.093Z,17.90
2019-04-25T23:28:28.065Z,17.80
2019-04-25T23:31:00.719Z,17.70
2019-04-25T23:33:30.522Z,17.70
2019-04-25T23:36:00.781Z,17.60
2019-04-25T23:38:30.596Z,17.50
2019-04-25T23:41:00.530Z,17.50
2019-04-25T23:43:30.314Z,17.40
2019-04-25T23:46:00.201Z,17.30
2019-04-25T23:48:30.252Z,17.30
2019-04-25T23:51:01.137Z,17.30
2019-04-25T23:53:31.889Z,17.20
2019-04-25T23:56:02.536Z,17.20
2019-04-25T23:58:32.429Z,17.20
